This is the latest recevied weather packets stored in our database for station/object HG6IEP-10. If no packets are shown the sender has not sent any weather packets the latest 10 day(s).
| Time | Temp. | Humidity | Pressure | Rain* | Wind** | Luminosity | Snow |
|---|---|---|---|---|---|---|---|
| 1777858086 | 7.78° C | 44% | 996 hPa | - | - | - | - |
| 1777854482 | 9.44° C | 45% | 996 hPa | - | - | - | - |
| 1777850878 | 11.67° C | 44% | 996 hPa | - | - | - | - |
| 1777847274 | 13.33° C | 43% | 996 hPa | - | - | - | - |
| 1777843670 | 16.67° C | 42% | 996 hPa | - | - | - | - |
| 1777840066 | 18.89° C | 40% | 995 hPa | - | - | - | - |
| 1777836462 | 22.22° C | 39% | 995 hPa | - | - | - | - |
| 1777832858 | 26.11° C | 35% | 995 hPa | - | - | - | - |
| 1777829254 | 31.11° C | 30% | 995 hPa | - | - | - | - |
| 1777825650 | 34.44° C | 26% | 995 hPa | - | - | - | - |
| 1777822046 | 35.56° C | 22% | 995 hPa | - | - | - | - |
| 1777818442 | 35.56° C | 21% | 995 hPa | - | - | - | - |
| 1777814838 | 35° C | 21% | 996 hPa | - | - | - | - |
| 1777811234 | 33.89° C | 20% | 997 hPa | - | - | - | - |
| 1777807630 | 32.22° C | 23% | 997 hPa | - | - | - | - |
| 1777804026 | 29.44° C | 24% | 998 hPa | - | - | - | - |
| 1777800422 | 26.67° C | 24% | 998 hPa | - | - | - | - |
| 1777796818 | 23.33° C | 25% | 999 hPa | - | - | - | - |
| 1777793214 | 19.44° C | 27% | 999 hPa | - | - | - | - |
| 1777789610 | 12.78° C | 32% | 999 hPa | - | - | - | - |
| 1777786006 | 7.22° C | 37% | 999 hPa | - | - | - | - |
| 1777782405 | 5° C | 40% | 999 hPa | - | - | - | - |
| 1777778806 | 5.56° C | 40% | - | - | - | - | - |
| 1777778798 | 5.56° C | 40% | 999 hPa | - | - | - | - |
| 1777775194 | 7.22° C | 39% | 998 hPa | - | - | - | - |
* Rain since midnight (hover to see other rain measurements)
** Current wind speed in m/s (hover to see current wind gust speed)